createdAt,value
2017-05-05T00:01:24.024Z,0
2017-05-05T00:02:04.495Z,0
2017-05-05T00:02:44.984Z,0
2017-05-05T00:03:25.466Z,0
2017-05-05T00:04:05.894Z,0
2017-05-05T00:04:46.379Z,0
2017-05-05T00:05:26.866Z,0
2017-05-05T00:06:07.352Z,0
2017-05-05T00:06:47.834Z,0
2017-05-05T00:07:28.294Z,0
2017-05-05T00:09:41.014Z,0
2017-05-05T00:10:21.484Z,0
2017-05-05T00:11:02.001Z,0
2017-05-05T00:11:42.484Z,0
2017-05-05T00:12:22.959Z,0
2017-05-05T00:13:03.429Z,0
2017-05-05T00:13:45.503Z,0
2017-05-05T00:14:25.941Z,0
2017-05-05T00:15:06.409Z,0
2017-05-05T00:15:46.853Z,0
2017-05-05T00:16:27.333Z,0
2017-05-05T00:17:07.814Z,0
2017-05-05T00:17:48.289Z,0
2017-05-05T00:18:28.813Z,0
2017-05-05T00:19:09.283Z,0
2017-05-05T00:19:49.745Z,0
2017-05-05T00:22:27.822Z,0
2017-05-05T00:23:08.352Z,0
2017-05-05T00:23:49.421Z,0
2017-05-05T00:24:29.903Z,0
2017-05-05T00:25:10.375Z,0
2017-05-05T00:25:50.839Z,0
2017-05-05T00:26:31.326Z,0
2017-05-05T00:27:11.780Z,0
2017-05-05T00:27:52.233Z,0
2017-05-05T00:28:32.717Z,0
2017-05-05T00:29:13.193Z,0
2017-05-05T00:29:53.637Z,0
2017-05-05T00:30:34.074Z,0
2017-05-05T00:31:14.534Z,0
2017-05-05T00:31:55.006Z,0
2017-05-05T00:32:35.489Z,0
2017-05-05T00:33:15.937Z,0
2017-05-05T00:33:56.400Z,0
2017-05-05T00:34:36.843Z,0
2017-05-05T00:35:17.270Z,0
2017-05-05T00:35:57.742Z,0
2017-05-05T00:36:38.192Z,0
2017-05-05T00:37:18.625Z,0
2017-05-05T00:37:59.123Z,0
2017-05-05T00:38:39.623Z,0
2017-05-05T00:39:20.037Z,0
2017-05-05T00:40:00.501Z,0
2017-05-05T00:40:40.980Z,0
2017-05-05T00:41:21.417Z,0
2017-05-05T00:42:01.889Z,0
2017-05-05T00:42:42.457Z,0
2017-05-05T00:43:22.936Z,0
2017-05-05T00:44:03.383Z,0
2017-05-05T00:44:43.861Z,0
2017-05-05T00:47:21.917Z,0
2017-05-05T00:48:02.395Z,0
2017-05-05T00:48:42.874Z,0
2017-05-05T00:49:23.352Z,0
2017-05-05T00:51:36.091Z,0
2017-05-05T00:52:16.585Z,0
2017-05-05T00:52:57.050Z,0
2017-05-05T00:53:38.303Z,0
2017-05-05T00:54:18.764Z,0
2017-05-05T00:54:59.243Z,0
2017-05-05T00:55:39.742Z,0
2017-05-05T00:56:20.206Z,0
2017-05-05T00:57:00.673Z,0
2017-05-05T00:57:41.162Z,0
2017-05-05T00:58:21.632Z,0
2017-05-05T00:59:02.119Z,0
2017-05-05T00:59:42.610Z,0
2017-05-05T01:00:23.060Z,0
2017-05-05T01:01:03.535Z,0
2017-05-05T01:01:44.557Z,0
2017-05-05T01:02:25.032Z,0
2017-05-05T01:03:05.500Z,0
2017-05-05T01:03:45.946Z,0
2017-05-05T01:04:26.390Z,0
2017-05-05T01:07:04.524Z,0
2017-05-05T01:07:45.005Z,0
2017-05-05T01:08:25.504Z,0
2017-05-05T01:09:06.586Z,0
2017-05-05T01:09:47.086Z,0
2017-05-05T01:10:27.569Z,0
2017-05-05T01:11:08.067Z,0
2017-05-05T01:11:48.510Z,0
2017-05-05T01:12:28.969Z,0
2017-05-05T01:13:09.422Z,0
2017-05-05T01:13:49.925Z,0
2017-05-05T01:14:30.396Z,0
2017-05-05T01:15:10.916Z,0
2017-05-05T01:15:51.332Z,0
2017-05-05T01:16:31.796Z,0
2017-05-05T01:19:04.846Z,0
2017-05-05T01:19:45.297Z,0
2017-05-05T01:20:25.788Z,0
2017-05-05T01:21:06.266Z,0
2017-05-05T01:21:46.752Z,0
2017-05-05T01:22:27.210Z,0
2017-05-05T01:23:07.667Z,0
2017-05-05T01:23:48.128Z,0
2017-05-05T01:24:28.597Z,0
2017-05-05T01:25:09.077Z,0
2017-05-05T01:25:49.550Z,0
2017-05-05T01:26:30.084Z,0
2017-05-05T01:27:10.543Z,0
2017-05-05T01:27:50.999Z,0
2017-05-05T01:28:31.497Z,0
2017-05-05T01:29:11.970Z,0
2017-05-05T01:29:52.458Z,0
2017-05-05T01:32:10.281Z,0
2017-05-05T01:32:50.774Z,0
2017-05-05T01:35:08.528Z,0
2017-05-05T01:35:49.019Z,0
2017-05-05T01:36:29.496Z,0
2017-05-05T01:37:09.919Z,0
2017-05-05T01:37:50.414Z,0
2017-05-05T01:38:30.897Z,0
2017-05-05T01:39:11.370Z,0
2017-05-05T01:39:51.842Z,0
2017-05-05T01:40:32.308Z,0
2017-05-05T01:41:12.800Z,0
2017-05-05T01:41:53.243Z,0
2017-05-05T01:42:33.680Z,0
2017-05-05T01:43:14.184Z,0
2017-05-05T01:43:54.636Z,0
2017-05-05T01:44:35.086Z,0
2017-05-05T01:45:15.544Z,0
2017-05-05T01:45:55.972Z,0
2017-05-05T01:46:36.401Z,0
2017-05-05T01:47:16.855Z,0
2017-05-05T01:47:57.347Z,0
2017-05-05T01:48:37.823Z,0
2017-05-05T01:49:18.255Z,0
2017-05-05T01:49:58.752Z,0
2017-05-05T01:50:39.209Z,0
2017-05-05T01:51:19.629Z,0
2017-05-05T01:52:00.120Z,0
2017-05-05T01:52:40.581Z,0
2017-05-05T01:53:21.012Z,0
2017-05-05T01:54:01.459Z,0
2017-05-05T01:54:41.903Z,0
2017-05-05T01:55:22.350Z,0
2017-05-05T01:57:50.290Z,0
2017-05-05T01:58:30.774Z,0
2017-05-05T01:59:11.228Z,0
2017-05-05T02:01:49.258Z,0
2017-05-05T02:02:29.724Z,0
2017-05-05T02:03:10.210Z,0
2017-05-05T02:03:50.661Z,0
2017-05-05T02:04:31.842Z,0
2017-05-05T02:05:12.295Z,0
2017-05-05T02:05:52.743Z,0
2017-05-05T02:06:33.180Z,0
2017-05-05T02:07:13.724Z,0
2017-05-05T02:07:54.254Z,0
2017-05-05T02:08:34.752Z,0
2017-05-05T02:09:15.233Z,0
2017-05-05T02:09:55.712Z,0
2017-05-05T02:10:36.111Z,0
2017-05-05T02:11:16.571Z,0
2017-05-05T02:11:57.040Z,0
2017-05-05T02:12:37.467Z,0
2017-05-05T02:13:17.909Z,0
2017-05-05T02:13:58.363Z,0
2017-05-05T02:14:38.823Z,0
2017-05-05T02:15:19.285Z,0
2017-05-05T02:15:59.738Z,0
2017-05-05T02:16:40.171Z,0
2017-05-05T02:17:20.553Z,0
2017-05-05T02:18:00.999Z,0
2017-05-05T02:18:41.445Z,0
2017-05-05T02:19:21.893Z,0
2017-05-05T02:20:02.358Z,0
2017-05-05T02:20:42.792Z,0
2017-05-05T02:21:23.245Z,0
2017-05-05T02:22:03.700Z,0
2017-05-05T02:22:44.149Z,0
2017-05-05T02:23:24.625Z,0
2017-05-05T02:24:05.064Z,0
2017-05-05T02:24:45.503Z,0
2017-05-05T02:25:25.996Z,0
2017-05-05T02:26:06.455Z,0
2017-05-05T02:26:46.904Z,0
2017-05-05T02:27:27.365Z,0
2017-05-05T02:28:07.805Z,0
2017-05-05T02:28:48.244Z,0
2017-05-05T02:29:28.697Z,0
2017-05-05T02:30:09.134Z,0
2017-05-05T02:30:49.564Z,0
2017-05-05T02:31:30.010Z,0
2017-05-05T02:32:10.449Z,0
2017-05-05T02:32:50.937Z,0
2017-05-05T02:33:31.400Z,0
2017-05-05T02:34:11.794Z,0
2017-05-05T02:34:52.235Z,0
2017-05-05T02:35:32.672Z,0
2017-05-05T02:36:13.130Z,0
2017-05-05T02:36:53.576Z,0
2017-05-05T02:37:34.039Z,0
2017-05-05T02:38:14.475Z,0
2017-05-05T02:38:54.992Z,0
2017-05-05T02:39:35.415Z,0
2017-05-05T02:40:15.867Z,0
2017-05-05T02:40:56.326Z,0
2017-05-05T02:41:36.776Z,0
2017-05-05T02:42:17.226Z,0
2017-05-05T02:42:57.671Z,0
2017-05-05T02:43:38.130Z,0
2017-05-05T02:44:18.600Z,0
2017-05-05T02:44:59.051Z,0
2017-05-05T02:45:39.525Z,0
2017-05-05T02:46:19.976Z,0
2017-05-05T02:47:00.459Z,0
2017-05-05T02:47:40.900Z,0
2017-05-05T02:48:21.344Z,0
2017-05-05T02:49:01.794Z,0
2017-05-05T02:49:42.237Z,0
2017-05-05T02:50:22.683Z,0
2017-05-05T02:51:03.141Z,0
2017-05-05T02:51:43.600Z,0
2017-05-05T02:52:24.045Z,0
2017-05-05T02:53:04.479Z,0
2017-05-05T02:53:44.932Z,0
2017-05-05T02:54:25.364Z,0
2017-05-05T02:55:05.801Z,0
2017-05-05T02:55:46.231Z,0
2017-05-05T02:56:26.649Z,0
2017-05-05T02:57:07.118Z,0
2017-05-05T02:57:47.598Z,0
2017-05-05T02:58:28.230Z,0
2017-05-05T02:59:08.691Z,0
2017-05-05T02:59:49.149Z,0
2017-05-05T03:00:29.616Z,0
2017-05-05T03:03:07.795Z,0
2017-05-05T03:03:48.262Z,0
2017-05-05T03:04:28.748Z,0
2017-05-05T03:05:09.246Z,0
2017-05-05T03:05:49.738Z,0
2017-05-05T03:06:30.242Z,0
2017-05-05T03:07:10.716Z,0
2017-05-05T03:07:51.223Z,0
2017-05-05T03:08:31.743Z,0
2017-05-05T03:09:12.233Z,0
2017-05-05T03:09:52.738Z,0
2017-05-05T03:10:33.221Z,0
2017-05-05T03:12:51.035Z,0
2017-05-05T03:13:31.501Z,0
2017-05-05T03:14:11.985Z,0
2017-05-05T03:14:52.467Z,0
2017-05-05T03:15:32.929Z,0
2017-05-05T03:16:13.415Z,0
2017-05-05T03:16:53.859Z,0
2017-05-05T03:17:34.330Z,0
2017-05-05T03:18:14.785Z,0
2017-05-05T03:18:55.237Z,0
2017-05-05T03:19:35.696Z,0
2017-05-05T03:22:03.643Z,0
2017-05-05T03:22:44.135Z,0
2017-05-05T03:23:24.611Z,0
2017-05-05T03:24:05.629Z,0
2017-05-05T03:24:46.101Z,0
2017-05-05T03:25:26.573Z,0
2017-05-05T03:26:07.053Z,0
2017-05-05T03:26:47.531Z,0
2017-05-05T03:27:28.020Z,0
2017-05-05T03:28:08.484Z,0
2017-05-05T03:28:48.966Z,0
2017-05-05T03:29:29.449Z,0
2017-05-05T03:30:09.942Z,0
2017-05-05T03:30:50.421Z,0
2017-05-05T03:31:30.915Z,0
2017-05-05T03:32:11.386Z,0
2017-05-05T03:32:51.889Z,0
2017-05-05T03:33:32.378Z,0
2017-05-05T03:34:12.838Z,0
2017-05-05T03:34:53.283Z,0
2017-05-05T03:35:33.733Z,0
2017-05-05T03:36:14.157Z,0
2017-05-05T03:36:54.608Z,0
2017-05-05T03:37:35.080Z,0
2017-05-05T03:38:15.531Z,0
2017-05-05T03:38:55.974Z,0
2017-05-05T03:39:36.435Z,0
2017-05-05T03:40:16.889Z,0
2017-05-05T03:40:57.377Z,0
2017-05-05T03:41:37.841Z,0
2017-05-05T03:42:18.261Z,0
2017-05-05T03:44:46.182Z,0
2017-05-05T03:45:26.666Z,0
2017-05-05T03:46:07.151Z,0
2017-05-05T03:46:47.620Z,0
2017-05-05T03:47:28.174Z,0
2017-05-05T03:48:08.599Z,0
2017-05-05T03:48:49.086Z,0
2017-05-05T03:49:29.576Z,0
2017-05-05T03:50:10.907Z,0
2017-05-05T03:50:51.374Z,0
2017-05-05T03:51:31.830Z,0
2017-05-05T03:52:12.276Z,0
2017-05-05T03:52:52.741Z,0
2017-05-05T03:53:34.105Z,0
2017-05-05T03:54:14.593Z,0
2017-05-05T03:54:55.066Z,0
2017-05-05T03:55:35.549Z,0
2017-05-05T03:56:16.043Z,0
2017-05-05T03:56:56.574Z,0
2017-05-05T03:57:37.017Z,0
2017-05-05T03:58:17.510Z,0
2017-05-05T03:58:57.990Z,0
2017-05-05T03:59:38.468Z,0
2017-05-05T04:00:18.914Z,0
2017-05-05T04:00:59.379Z,0
2017-05-05T04:01:39.832Z,0
2017-05-05T04:02:20.295Z,0
2017-05-05T04:03:00.728Z,0
2017-05-05T04:03:41.184Z,0
2017-05-05T04:04:21.653Z,0
2017-05-05T04:05:02.106Z,0
2017-05-05T04:05:42.567Z,0
2017-05-05T04:06:24.000Z,0
2017-05-05T04:07:04.468Z,0
2017-05-05T04:07:44.967Z,5
2017-05-05T04:08:25.433Z,5
2017-05-05T04:10:43.229Z,5
2017-05-05T04:11:23.687Z,5
2017-05-05T04:12:04.196Z,5
2017-05-05T04:12:44.662Z,5
2017-05-05T04:13:25.795Z,5
2017-05-05T04:14:06.250Z,5
2017-05-05T04:14:46.714Z,5
2017-05-05T04:15:27.156Z,5
2017-05-05T04:16:07.614Z,5
2017-05-05T04:18:45.646Z,5
2017-05-05T04:19:26.131Z,5
2017-05-05T04:20:06.620Z,5
2017-05-05T04:20:47.093Z,5
2017-05-05T04:21:27.580Z,5
2017-05-05T04:22:08.083Z,10
2017-05-05T04:22:48.557Z,10
2017-05-05T04:23:29.021Z,10
2017-05-05T04:24:09.504Z,10
2017-05-05T04:24:49.939Z,10
2017-05-05T04:25:30.393Z,10
2017-05-05T04:26:10.839Z,10
2017-05-05T04:26:51.287Z,10
2017-05-05T04:27:31.744Z,10
2017-05-05T04:28:12.240Z,10
2017-05-05T04:28:52.653Z,10
2017-05-05T04:31:20.569Z,15
2017-05-05T04:32:01.069Z,15
2017-05-05T04:32:41.542Z,15
2017-05-05T04:33:22.033Z,15
2017-05-05T04:34:02.504Z,15
2017-05-05T04:34:42.981Z,15
2017-05-05T04:35:23.460Z,15
2017-05-05T04:36:03.930Z,15
2017-05-05T04:36:44.364Z,15
2017-05-05T04:37:24.859Z,15
2017-05-05T04:38:05.337Z,15
2017-05-05T04:38:45.814Z,15
2017-05-05T04:39:26.295Z,15
2017-05-05T04:40:06.777Z,15
2017-05-05T04:40:47.225Z,15
2017-05-05T04:41:27.667Z,20
2017-05-05T04:42:08.140Z,20
2017-05-05T04:42:48.588Z,20
2017-05-05T04:43:29.037Z,20
2017-05-05T04:44:09.498Z,20
2017-05-05T04:44:49.946Z,20
2017-05-05T04:45:30.408Z,20
2017-05-05T04:46:10.844Z,20
2017-05-05T04:46:51.286Z,25
2017-05-05T04:47:31.729Z,25
2017-05-05T04:48:12.177Z,25
2017-05-05T04:48:52.608Z,25
2017-05-05T04:49:33.061Z,25
2017-05-05T04:50:13.531Z,30
2017-05-05T04:50:54.168Z,30
2017-05-05T04:51:35.370Z,30
2017-05-05T04:54:13.648Z,35
2017-05-05T04:54:54.122Z,35
2017-05-05T04:55:34.604Z,40
2017-05-05T04:56:15.119Z,40
2017-05-05T04:56:55.589Z,40
2017-05-05T04:57:36.118Z,45
2017-05-05T04:58:16.607Z,45
2017-05-05T04:58:57.088Z,50
2017-05-05T04:59:37.538Z,50
2017-05-05T05:00:17.988Z,55
2017-05-05T05:00:58.439Z,60
2017-05-05T05:01:38.905Z,60
2017-05-05T05:02:19.373Z,65
2017-05-05T05:02:59.817Z,65
2017-05-05T05:03:40.939Z,70
2017-05-05T05:04:21.393Z,70
2017-05-05T05:05:01.813Z,75
2017-05-05T05:05:42.258Z,75
2017-05-05T05:06:22.724Z,80
2017-05-05T05:07:03.141Z,80
2017-05-05T05:07:43.602Z,80
2017-05-05T05:08:24.066Z,80
2017-05-05T05:09:05.222Z,80
2017-05-05T05:11:23.009Z,80
2017-05-05T05:12:03.490Z,85
2017-05-05T05:12:43.991Z,90
2017-05-05T05:13:24.467Z,90
2017-05-05T05:14:04.959Z,95
2017-05-05T05:14:45.416Z,100
2017-05-05T05:15:25.901Z,100
2017-05-05T05:16:06.438Z,100
2017-05-05T05:16:47.057Z,100
2017-05-05T05:17:27.790Z,100
2017-05-05T05:18:08.325Z,100
2017-05-05T05:18:48.810Z,95
2017-05-05T05:19:29.294Z,90
2017-05-05T05:20:09.830Z,85
2017-05-05T05:20:50.330Z,80
2017-05-05T05:21:31.444Z,80
2017-05-05T05:22:11.878Z,80
2017-05-05T05:22:52.359Z,85
2017-05-05T05:23:32.830Z,90
2017-05-05T05:24:13.320Z,90
2017-05-05T05:24:53.775Z,90
2017-05-05T05:27:31.863Z,105
2017-05-05T05:28:12.371Z,105
2017-05-05T05:28:52.854Z,100
2017-05-05T05:29:33.359Z,100
2017-05-05T05:30:13.861Z,105
2017-05-05T05:30:54.343Z,110
2017-05-05T05:31:35.349Z,105
2017-05-05T05:32:15.820Z,105
2017-05-05T05:32:56.307Z,110
2017-05-05T05:33:36.940Z,110
2017-05-05T05:34:18.308Z,115
2017-05-05T05:34:58.757Z,115
2017-05-05T05:35:39.219Z,120
2017-05-05T05:36:19.664Z,120
2017-05-05T05:37:00.146Z,125
2017-05-05T05:37:40.595Z,135
2017-05-05T05:39:53.309Z,145
2017-05-05T05:40:33.782Z,145
2017-05-05T05:41:14.299Z,140
2017-05-05T05:41:54.840Z,140
2017-05-05T05:42:35.349Z,135
2017-05-05T05:43:15.835Z,140
2017-05-05T05:43:56.327Z,140
2017-05-05T05:44:36.822Z,140
2017-05-05T05:45:17.407Z,125
2017-05-05T05:45:57.857Z,120
2017-05-05T05:46:38.327Z,120
2017-05-05T05:47:18.814Z,120
2017-05-05T05:47:59.256Z,120
2017-05-05T05:50:17.236Z,110
2017-05-05T05:50:57.572Z,105
2017-05-05T05:51:38.044Z,95
2017-05-05T05:52:18.428Z,95
2017-05-05T05:52:58.852Z,95
2017-05-05T05:53:39.316Z,100
2017-05-05T05:54:19.785Z,105
2017-05-05T05:55:00.223Z,100
2017-05-05T05:55:40.681Z,100
2017-05-05T05:56:21.176Z,95
2017-05-05T05:57:01.618Z,95
2017-05-05T05:57:42.148Z,100
2017-05-05T05:58:22.657Z,100
2017-05-05T05:59:03.125Z,100
2017-05-05T05:59:43.517Z,105
2017-05-05T06:00:23.953Z,105
2017-05-05T06:01:04.389Z,105
2017-05-05T06:01:44.850Z,105
2017-05-05T06:02:25.307Z,120
2017-05-05T06:03:05.713Z,125
2017-05-05T06:03:46.214Z,135
2017-05-05T06:04:26.638Z,140
2017-05-05T06:05:07.178Z,145
2017-05-05T06:05:47.617Z,155
2017-05-05T06:06:28.042Z,165
2017-05-05T06:07:08.462Z,165
2017-05-05T06:07:48.966Z,170
2017-05-05T06:08:30.241Z,170
2017-05-05T06:09:10.670Z,180
2017-05-05T06:09:51.147Z,180
2017-05-05T06:10:31.623Z,185
2017-05-05T06:11:12.127Z,185
2017-05-05T06:11:52.602Z,190
2017-05-05T06:12:33.019Z,195
2017-05-05T06:13:13.472Z,195
2017-05-05T06:13:53.927Z,195
2017-05-05T06:14:34.374Z,190
2017-05-05T06:15:15.448Z,190
2017-05-05T06:15:55.906Z,190
2017-05-05T06:16:36.360Z,190
2017-05-05T06:17:16.859Z,190
2017-05-05T06:17:57.269Z,185
2017-05-05T06:18:37.694Z,185
2017-05-05T06:19:18.194Z,180
2017-05-05T06:19:58.819Z,175
2017-05-05T06:20:39.795Z,170
2017-05-05T06:21:20.274Z,175
2017-05-05T06:22:00.829Z,185
2017-05-05T06:24:13.549Z,205
2017-05-05T06:24:54.058Z,215
2017-05-05T06:25:34.504Z,220
2017-05-05T06:26:14.931Z,220
2017-05-05T06:28:53.101Z,220
2017-05-05T06:29:33.480Z,210
2017-05-05T06:30:14.373Z,195
2017-05-05T06:30:55.305Z,175
2017-05-05T06:31:36.554Z,160
2017-05-05T06:32:19.096Z,135
2017-05-05T06:32:59.764Z,125
2017-05-05T06:33:40.669Z,110
2017-05-05T06:34:21.145Z,95
2017-05-05T06:35:01.878Z,80
2017-05-05T06:35:42.770Z,70
2017-05-05T06:36:23.398Z,65
2017-05-05T06:37:04.027Z,60
2017-05-05T06:37:44.638Z,60
2017-05-05T06:40:03.287Z,75
2017-05-05T06:40:43.734Z,85
2017-05-05T06:41:24.497Z,100
2017-05-05T06:42:05.288Z,110
2017-05-05T06:42:46.089Z,125
2017-05-05T06:43:26.531Z,130
2017-05-05T06:45:39.294Z,130
2017-05-05T06:46:20.105Z,130
2017-05-05T06:47:00.677Z,135
2017-05-05T06:47:41.166Z,145
2017-05-05T06:48:21.639Z,150
2017-05-05T06:49:02.129Z,155
2017-05-05T06:49:42.595Z,155
2017-05-05T06:50:23.050Z,160
2017-05-05T06:51:03.509Z,165
2017-05-05T06:51:43.969Z,175
2017-05-05T06:52:24.386Z,185
2017-05-05T06:53:04.834Z,195
2017-05-05T06:53:45.257Z,200
2017-05-05T06:54:25.756Z,205
2017-05-05T06:55:06.245Z,205
2017-05-05T06:57:19.468Z,240
2017-05-05T06:57:59.976Z,250
2017-05-05T06:58:40.491Z,255
2017-05-05T06:59:20.912Z,260
2017-05-05T07:00:01.374Z,270
2017-05-05T07:00:41.867Z,275
2017-05-05T07:01:22.428Z,285
2017-05-05T07:02:02.918Z,295
2017-05-05T07:04:31.002Z,350
2017-05-05T07:05:11.488Z,375
2017-05-05T07:05:51.996Z,395
2017-05-05T07:06:32.453Z,405
2017-05-05T07:11:03.204Z,395
2017-05-05T07:11:43.689Z,390
2017-05-05T07:12:24.145Z,385
2017-05-05T07:13:04.708Z,385
2017-05-05T07:13:45.171Z,390
2017-05-05T07:14:25.757Z,395
2017-05-05T07:15:06.233Z,390
2017-05-05T07:15:46.696Z,390
2017-05-05T07:16:27.181Z,385
2017-05-05T07:17:07.659Z,390
2017-05-05T07:17:48.141Z,390
2017-05-05T07:18:28.555Z,390
2017-05-05T07:19:09.024Z,380
2017-05-05T07:19:49.601Z,360
2017-05-05T07:20:30.300Z,340
2017-05-05T07:21:10.765Z,340
2017-05-05T07:21:51.361Z,340
2017-05-05T07:22:31.978Z,345
2017-05-05T07:23:12.578Z,355
2017-05-05T07:23:53.160Z,375
2017-05-05T07:24:33.644Z,400
2017-05-05T07:25:14.132Z,420
2017-05-05T07:25:54.595Z,430
2017-05-05T07:26:35.057Z,445
2017-05-05T07:29:13.220Z,400
2017-05-05T07:29:53.759Z,390
2017-05-05T07:30:34.249Z,380
2017-05-05T07:31:14.696Z,375
2017-05-05T07:31:55.176Z,375
2017-05-05T07:32:35.787Z,380
2017-05-05T07:33:16.207Z,375
2017-05-05T07:33:57.453Z,380
2017-05-05T07:34:37.915Z,400
2017-05-05T07:35:18.409Z,415
2017-05-05T07:35:58.941Z,440
2017-05-05T07:38:37.151Z,665
2017-05-05T07:39:17.564Z,900
2017-05-05T07:41:50.771Z,1250
2017-05-05T07:42:31.177Z,1225
2017-05-05T07:43:11.651Z,1180
2017-05-05T07:43:52.101Z,1175
2017-05-05T07:44:32.804Z,750
2017-05-05T07:45:13.247Z,560
2017-05-05T07:45:53.784Z,515
2017-05-05T07:46:34.347Z,510
2017-05-05T07:47:14.847Z,575
2017-05-05T07:47:55.312Z,790
2017-05-05T07:48:35.762Z,805
2017-05-05T07:49:16.198Z,705
2017-05-05T07:49:56.916Z,705
2017-05-05T07:52:30.061Z,580
2017-05-05T07:53:10.618Z,635
2017-05-05T07:53:50.994Z,635
2017-05-05T07:54:31.507Z,625
2017-05-05T07:55:11.967Z,620
2017-05-05T07:55:52.396Z,610
2017-05-05T07:56:32.820Z,570
2017-05-05T07:58:50.796Z,675
2017-05-05T07:59:31.144Z,1050
2017-05-05T08:00:11.556Z,1475
2017-05-05T08:00:52.047Z,1705
2017-05-05T08:03:25.067Z,1690
2017-05-05T08:04:06.321Z,1775
2017-05-05T08:04:46.757Z,1760
2017-05-05T08:05:27.240Z,1770
2017-05-05T08:06:07.784Z,1800
2017-05-05T08:06:48.436Z,1810
2017-05-05T08:07:28.920Z,1850
2017-05-05T08:09:57.232Z,1910
2017-05-05T08:10:37.703Z,1975
2017-05-05T08:11:18.245Z,2020
2017-05-05T08:11:58.690Z,2010
2017-05-05T08:12:39.145Z,1950
2017-05-05T08:13:19.628Z,1920
2017-05-05T08:14:00.127Z,1915
2017-05-05T08:14:40.592Z,1940
2017-05-05T08:17:18.972Z,1970
2017-05-05T08:17:59.462Z,1980
2017-05-05T08:18:39.969Z,2000
2017-05-05T08:19:21.123Z,2045
2017-05-05T08:20:01.631Z,2090
2017-05-05T08:20:42.106Z,2065
2017-05-05T08:21:22.545Z,2105
2017-05-05T08:22:03.034Z,2110
2017-05-05T08:24:16.142Z,1915
2017-05-05T08:24:56.623Z,1945
2017-05-05T08:25:37.130Z,1970
2017-05-05T08:26:17.587Z,1465
2017-05-05T08:26:58.039Z,2045
2017-05-05T08:27:38.514Z,2160
2017-05-05T08:28:19.014Z,2285
2017-05-05T08:28:59.473Z,2105
2017-05-05T08:29:39.993Z,1515
2017-05-05T08:30:20.645Z,745
2017-05-05T08:31:01.041Z,525
2017-05-05T08:31:41.559Z,495
2017-05-05T08:32:22.047Z,465
2017-05-05T08:33:02.495Z,500
2017-05-05T08:33:42.970Z,840
2017-05-05T08:34:23.437Z,2085
2017-05-05T08:35:03.955Z,1470
2017-05-05T08:35:44.437Z,2340
2017-05-05T08:36:24.926Z,2440
2017-05-05T08:37:05.475Z,2415
2017-05-05T08:37:46.010Z,2360
2017-05-05T08:38:26.759Z,2355
2017-05-05T08:39:07.227Z,2340
2017-05-05T08:43:20.151Z,2400
2017-05-05T08:44:02.339Z,1605
2017-05-05T08:44:43.109Z,1920
2017-05-05T08:45:23.596Z,825
2017-05-05T08:46:04.084Z,605
2017-05-05T08:46:44.556Z,595
2017-05-05T08:47:25.029Z,610
2017-05-05T08:48:05.564Z,610
2017-05-05T08:48:46.016Z,805
2017-05-05T08:49:26.623Z,1285
2017-05-05T08:50:07.085Z,880
2017-05-05T08:50:47.523Z,805
2017-05-05T08:53:15.588Z,815
2017-05-05T08:53:56.049Z,825
2017-05-05T08:54:36.519Z,835
2017-05-05T08:55:17.002Z,870
2017-05-05T08:55:57.471Z,920
2017-05-05T08:56:38.302Z,890
2017-05-05T08:57:18.732Z,895
2017-05-05T08:57:59.249Z,910
2017-05-05T09:00:17.425Z,2130
2017-05-05T09:00:57.940Z,2330
2017-05-05T09:01:38.423Z,545
2017-05-05T09:04:06.426Z,480
2017-05-05T09:04:47.065Z,475
2017-05-05T09:06:59.827Z,480
2017-05-05T09:07:40.305Z,470
2017-05-05T09:08:20.793Z,470
2017-05-05T09:09:01.212Z,460
2017-05-05T09:09:41.685Z,470
2017-05-05T09:11:54.774Z,530
2017-05-05T09:12:35.533Z,580
2017-05-05T09:13:15.974Z,670
2017-05-05T09:13:56.443Z,1005
2017-05-05T09:14:36.863Z,1260
2017-05-05T09:16:49.604Z,2320
2017-05-05T09:17:30.284Z,1535
2017-05-05T09:18:10.713Z,1315
2017-05-05T09:18:51.216Z,640
2017-05-05T09:21:29.466Z,425
2017-05-05T09:22:09.999Z,420
2017-05-05T09:22:50.476Z,430
2017-05-05T09:23:30.996Z,425
2017-05-05T09:24:11.465Z,425
2017-05-05T09:24:51.952Z,410
2017-05-05T09:25:32.531Z,415
2017-05-05T09:26:13.042Z,405
2017-05-05T09:26:53.559Z,390
2017-05-05T09:27:33.986Z,380
2017-05-05T09:28:14.501Z,370
2017-05-05T09:28:54.974Z,370
2017-05-05T09:29:35.469Z,360
2017-05-05T09:30:16.055Z,360
2017-05-05T09:30:56.548Z,370
2017-05-05T09:31:37.158Z,375
2017-05-05T09:32:17.795Z,380
2017-05-05T09:32:58.348Z,380
2017-05-05T09:33:38.828Z,380
2017-05-05T09:34:19.378Z,390
2017-05-05T09:34:59.976Z,410
2017-05-05T09:35:40.522Z,425
2017-05-05T09:38:19.096Z,440
2017-05-05T09:38:59.598Z,440
2017-05-05T09:39:40.067Z,425
2017-05-05T09:40:20.598Z,405
2017-05-05T09:41:01.181Z,400
2017-05-05T09:43:29.440Z,410
2017-05-05T09:44:09.819Z,415
2017-05-05T09:44:52.034Z,400
2017-05-05T09:45:32.914Z,385
2017-05-05T09:46:13.467Z,390
2017-05-05T09:46:53.968Z,405
2017-05-05T09:47:34.432Z,415
2017-05-05T09:48:14.930Z,425
2017-05-05T09:48:55.432Z,440
2017-05-05T09:49:36.065Z,445
2017-05-05T09:50:16.521Z,445
2017-05-05T09:50:57.094Z,450
2017-05-05T09:53:25.228Z,400
2017-05-05T09:54:05.829Z,390
2017-05-05T09:54:46.307Z,380
2017-05-05T09:55:26.785Z,370
2017-05-05T09:56:07.249Z,365
2017-05-05T09:56:47.757Z,355
2017-05-05T09:57:28.274Z,345
2017-05-05T09:58:08.770Z,340
2017-05-05T09:58:49.250Z,330
2017-05-05T09:59:29.729Z,330
2017-05-05T10:00:10.195Z,325
2017-05-05T10:00:50.611Z,325
2017-05-05T10:03:03.396Z,330
2017-05-05T10:05:21.524Z,350
2017-05-05T10:06:01.764Z,365
2017-05-05T10:06:42.203Z,380
2017-05-05T10:09:10.198Z,455
2017-05-05T10:09:50.696Z,475
2017-05-05T10:10:31.155Z,490
2017-05-05T10:11:11.616Z,555
2017-05-05T10:11:52.101Z,560
2017-05-05T10:12:32.592Z,570
2017-05-05T10:13:13.030Z,620
2017-05-05T10:15:30.976Z,685
2017-05-05T10:16:11.582Z,670
2017-05-05T10:16:52.029Z,675
2017-05-05T10:17:32.579Z,680
2017-05-05T10:18:13.136Z,685
2017-05-05T10:18:53.655Z,710
2017-05-05T10:19:34.130Z,885
2017-05-05T10:20:14.571Z,940
2017-05-05T10:20:55.013Z,950
2017-05-05T10:21:35.488Z,965
2017-05-05T10:22:15.993Z,940
2017-05-05T10:22:56.505Z,855
2017-05-05T10:23:37.006Z,855
2017-05-05T10:24:17.447Z,820
2017-05-05T10:24:57.902Z,860
2017-05-05T10:25:38.368Z,875
2017-05-05T10:26:18.848Z,830
2017-05-05T10:26:59.280Z,810
2017-05-05T10:27:39.778Z,805
2017-05-05T10:28:20.254Z,665
2017-05-05T10:29:00.725Z,745
2017-05-05T10:29:41.237Z,765
2017-05-05T10:30:21.690Z,715
2017-05-05T10:32:34.484Z,1075
2017-05-05T10:33:14.940Z,2170
2017-05-05T10:33:55.411Z,1295
2017-05-05T10:34:35.909Z,810
2017-05-05T10:35:16.389Z,765
2017-05-05T10:35:56.864Z,1130
2017-05-05T10:36:37.313Z,1820
2017-05-05T10:37:17.787Z,980
2017-05-05T10:37:58.263Z,1030
2017-05-05T10:38:38.737Z,860
2017-05-05T10:39:19.219Z,745
2017-05-05T10:39:59.717Z,755
2017-05-05T10:42:12.451Z,835
2017-05-05T10:42:52.899Z,1110
2017-05-05T10:43:34.491Z,1475
2017-05-05T10:44:14.849Z,1545
2017-05-05T10:44:55.353Z,1415
2017-05-05T10:45:35.899Z,1360
2017-05-05T10:46:16.388Z,1300
2017-05-05T10:46:56.808Z,1220
2017-05-05T10:47:37.301Z,1205
2017-05-05T10:48:18.808Z,1170
2017-05-05T10:52:40.112Z,1150
2017-05-05T10:53:20.536Z,1155
2017-05-05T10:54:01.017Z,1120
2017-05-05T10:54:41.537Z,1120
2017-05-05T10:55:22.081Z,1115
2017-05-05T10:56:02.584Z,1105
2017-05-05T10:56:43.367Z,1095
2017-05-05T10:57:23.850Z,1095
2017-05-05T10:58:04.619Z,1090
2017-05-05T10:58:45.137Z,1110
2017-05-05T10:59:25.657Z,1115
2017-05-05T11:00:06.260Z,1115
2017-05-05T11:00:47.554Z,1110
2017-05-05T11:01:28.010Z,1105
2017-05-05T11:02:08.491Z,1105
2017-05-05T11:02:48.952Z,1110
2017-05-05T11:03:29.421Z,1120
2017-05-05T11:04:09.943Z,1125
2017-05-05T11:06:48.108Z,1130
2017-05-05T11:07:28.623Z,1130
2017-05-05T11:08:09.128Z,1165
2017-05-05T11:08:49.668Z,1205
2017-05-05T11:09:30.242Z,1215
2017-05-05T11:10:10.802Z,1205
2017-05-05T11:10:51.249Z,1190
2017-05-05T11:11:31.916Z,1175
2017-05-05T11:12:12.437Z,1195
2017-05-05T11:12:52.920Z,1230
2017-05-05T11:13:33.346Z,1250
2017-05-05T11:14:13.863Z,1265
2017-05-05T11:14:54.372Z,1260
2017-05-05T11:15:34.902Z,1260
2017-05-05T11:16:15.399Z,1245
2017-05-05T11:16:55.866Z,1235
2017-05-05T11:17:36.391Z,1250
2017-05-05T11:18:16.877Z,1240
2017-05-05T11:18:57.348Z,1230
2017-05-05T11:21:10.114Z,1230
2017-05-05T11:21:50.625Z,1270